sensor_id;sensor_type;location;lat;lon;timestamp;pressure;altitude;pressure_sealevel;temperature;humidity
64616;BME280;51027;42.162;24.754;2023-06-22T03:32:01;99961.84;;;20.07;100.00
64616;BME280;51027;42.162;24.754;2023-06-22T03:34:26;99999.16;;;20.32;100.00
64616;BME280;51027;42.162;24.754;2023-06-22T03:36:52;100018.00;;;20.44;98.75
64616;BME280;51027;42.162;24.754;2023-06-22T03:39:17;99999.69;;;20.37;97.84
64616;BME280;51027;42.162;24.754;2023-06-22T03:41:46;100007.94;;;20.34;98.38
64616;BME280;51027;42.162;24.754;2023-06-22T03:44:11;100008.16;;;20.44;98.18
64616;BME280;51027;42.162;24.754;2023-06-22T03:46:37;100019.63;;;20.57;97.89
64616;BME280;51027;42.162;24.754;2023-06-22T03:49:03;100008.31;;;20.54;97.10
64616;BME280;51027;42.162;24.754;2023-06-22T03:51:29;100010.56;;;20.47;96.95
64616;BME280;51027;42.162;24.754;2023-06-22T03:53:54;100017.34;;;20.64;96.46
64616;BME280;51027;42.162;24.754;2023-06-22T03:56:20;100008.09;;;20.68;96.45
64616;BME280;51027;42.162;24.754;2023-06-22T03:58:46;100014.72;;;20.75;96.11
64616;BME280;51027;42.162;24.754;2023-06-22T04:01:11;100013.38;;;20.81;96.02
64616;BME280;51027;42.162;24.754;2023-06-22T04:03:38;99995.72;;;20.78;96.15
64616;BME280;51027;42.162;24.754;2023-06-22T04:06:03;100002.31;;;20.85;97.39
64616;BME280;51027;42.162;24.754;2023-06-22T04:08:29;100006.22;;;20.92;96.71
64616;BME280;51027;42.162;24.754;2023-06-22T04:10:55;100010.84;;;21.02;96.28
64616;BME280;51027;42.162;24.754;2023-06-22T04:13:21;100010.28;;;21.09;96.34
64616;BME280;51027;42.162;24.754;2023-06-22T04:15:46;99983.47;;;20.98;94.77
64616;BME280;51027;42.162;24.754;2023-06-22T04:18:12;100013.09;;;21.19;93.29
64616;BME280;51027;42.162;24.754;2023-06-22T04:20:38;100018.75;;;21.27;93.13
64616;BME280;51027;42.162;24.754;2023-06-22T04:23:04;100009.13;;;21.36;92.46
64616;BME280;51027;42.162;24.754;2023-06-22T04:25:29;100015.94;;;21.40;91.75
64616;BME280;51027;42.162;24.754;2023-06-22T04:27:55;99993.13;;;21.23;92.07
64616;BME280;51027;42.162;24.754;2023-06-22T04:30:20;100014.38;;;21.48;92.23
64616;BME280;51027;42.162;24.754;2023-06-22T04:32:46;100002.06;;;21.57;91.54
64616;BME280;51027;42.162;24.754;2023-06-22T04:35:21;100007.78;;;21.41;91.86
64616;BME280;51027;42.162;24.754;2023-06-22T04:37:47;100025.94;;;21.26;92.38
64616;BME280;51027;42.162;24.754;2023-06-22T04:40:14;100023.00;;;21.41;92.65
64616;BME280;51027;42.162;24.754;2023-06-22T04:42:40;100031.69;;;21.67;91.90
64616;BME280;51027;42.162;24.754;2023-06-22T04:45:08;100027.50;;;21.74;90.43
64616;BME280;51027;42.162;24.754;2023-06-22T04:47:35;100026.31;;;21.78;90.95
64616;BME280;51027;42.162;24.754;2023-06-22T04:50:04;100026.88;;;21.93;90.86
64616;BME280;51027;42.162;24.754;2023-06-22T04:52:31;100026.53;;;21.75;91.12
64616;BME280;51027;42.162;24.754;2023-06-22T04:54:56;100030.66;;;22.01;90.72
64616;BME280;51027;42.162;24.754;2023-06-22T04:57:22;100023.97;;;22.07;90.58
64616;BME280;51027;42.162;24.754;2023-06-22T04:59:58;100009.47;;;21.76;92.14
64616;BME280;51027;42.162;24.754;2023-06-22T05:02:36;100014.16;;;22.06;91.73
64616;BME280;51027;42.162;24.754;2023-06-22T05:05:03;100015.34;;;22.35;90.75
64616;BME280;51027;42.162;24.754;2023-06-22T05:07:34;100010.31;;;22.42;90.62
64616;BME280;51027;42.162;24.754;2023-06-22T05:10:03;100005.03;;;22.52;90.34
64616;BME280;51027;42.162;24.754;2023-06-22T05:12:30;100001.59;;;22.61;90.23
64616;BME280;51027;42.162;24.754;2023-06-22T05:14:56;100000.94;;;22.68;89.84
64616;BME280;51027;42.162;24.754;2023-06-22T05:17:21;99999.41;;;22.55;88.29
64616;BME280;51027;42.162;24.754;2023-06-22T05:19:47;100003.41;;;22.60;87.61
64616;BME280;51027;42.162;24.754;2023-06-22T05:22:15;99993.75;;;22.58;87.30
64616;BME280;51027;42.162;24.754;2023-06-22T05:24:42;100011.50;;;22.81;85.85
64616;BME280;51027;42.162;24.754;2023-06-22T05:27:08;100005.69;;;22.97;85.28
64616;BME280;51027;42.162;24.754;2023-06-22T05:29:33;99990.94;;;23.12;84.49
64616;BME280;51027;42.162;24.754;2023-06-22T05:31:59;100019.06;;;23.39;83.58
64616;BME280;51027;42.162;24.754;2023-06-22T05:34:24;100022.78;;;23.68;82.90
64616;BME280;51027;42.162;24.754;2023-06-22T05:36:52;100010.78;;;23.72;83.08
64616;BME280;51027;42.162;24.754;2023-06-22T05:39:18;99999.41;;;23.69;81.21
64616;BME280;51027;42.162;24.754;2023-06-22T05:41:45;100015.25;;;23.62;80.42
64616;BME280;51027;42.162;24.754;2023-06-22T05:44:10;100015.03;;;23.75;80.05
64616;BME280;51027;42.162;24.754;2023-06-22T05:46:36;100012.41;;;23.94;78.64
64616;BME280;51027;42.162;24.754;2023-06-22T05:49:01;100013.94;;;23.97;78.03
64616;BME280;51027;42.162;24.754;2023-06-22T05:51:27;100014.56;;;24.20;78.17
64616;BME280;51027;42.162;24.754;2023-06-22T05:53:52;100008.53;;;24.37;78.05
64616;BME280;51027;42.162;24.754;2023-06-22T05:56:18;100018.47;;;24.56;77.66
64616;BME280;51027;42.162;24.754;2023-06-22T05:58:43;100002.72;;;24.51;77.94
64616;BME280;51027;42.162;24.754;2023-06-22T06:01:09;100008.78;;;24.82;77.65
64616;BME280;51027;42.162;24.754;2023-06-22T06:03:34;100004.69;;;24.88;74.98
64616;BME280;51027;42.162;24.754;2023-06-22T06:06:07;100010.59;;;25.01;74.49
64616;BME280;51027;42.162;24.754;2023-06-22T06:08:32;99995.75;;;25.07;72.77
64616;BME280;51027;42.162;24.754;2023-06-22T06:11:01;100003.13;;;25.05;72.22
64616;BME280;51027;42.162;24.754;2023-06-22T06:13:26;100018.28;;;25.15;71.05
64616;BME280;51027;42.162;24.754;2023-06-22T06:15:51;100018.97;;;25.27;71.34
64616;BME280;51027;42.162;24.754;2023-06-22T06:18:20;100008.13;;;25.46;71.01
64616;BME280;51027;42.162;24.754;2023-06-22T06:20:45;100004.41;;;25.47;70.09
64616;BME280;51027;42.162;24.754;2023-06-22T06:23:11;100006.88;;;25.68;70.12
64616;BME280;51027;42.162;24.754;2023-06-22T06:25:36;99996.28;;;25.57;68.63
64616;BME280;51027;42.162;24.754;2023-06-22T06:28:01;100002.72;;;25.83;68.22
64616;BME280;51027;42.162;24.754;2023-06-22T06:30:27;100009.00;;;26.02;68.89
64616;BME280;51027;42.162;24.754;2023-06-22T06:32:52;99996.78;;;25.80;67.67
64616;BME280;51027;42.162;24.754;2023-06-22T06:35:18;100004.50;;;25.93;67.53
64616;BME280;51027;42.162;24.754;2023-06-22T06:37:46;100011.47;;;25.95;67.13
64616;BME280;51027;42.162;24.754;2023-06-22T06:40:12;100014.50;;;26.10;68.03
64616;BME280;51027;42.162;24.754;2023-06-22T06:42:42;100007.81;;;26.32;68.18
64616;BME280;51027;42.162;24.754;2023-06-22T06:45:28;99995.88;;;26.52;67.68
64616;BME280;51027;42.162;24.754;2023-06-22T06:47:56;100004.91;;;26.43;67.00
64616;BME280;51027;42.162;24.754;2023-06-22T06:50:21;100005.53;;;26.37;65.69
64616;BME280;51027;42.162;24.754;2023-06-22T06:52:47;100006.94;;;26.41;65.88
64616;BME280;51027;42.162;24.754;2023-06-22T06:55:12;99994.75;;;26.37;66.01
64616;BME280;51027;42.162;24.754;2023-06-22T06:57:39;100003.63;;;26.47;66.59
64616;BME280;51027;42.162;24.754;2023-06-22T07:00:06;100002.41;;;26.85;65.17
64616;BME280;51027;42.162;24.754;2023-06-22T07:02:38;99978.13;;;26.50;65.68
64616;BME280;51027;42.162;24.754;2023-06-22T07:05:05;100005.41;;;27.00;65.11
64616;BME280;51027;42.162;24.754;2023-06-22T07:07:31;99997.28;;;27.18;64.46
64616;BME280;51027;42.162;24.754;2023-06-22T07:09:56;100000.50;;;27.21;64.06
64616;BME280;51027;42.162;24.754;2023-06-22T07:12:22;100003.28;;;27.64;64.07
64616;BME280;51027;42.162;24.754;2023-06-22T07:14:48;99989.97;;;27.44;62.70
64616;BME280;51027;42.162;24.754;2023-06-22T07:17:13;99991.78;;;27.36;62.68
64616;BME280;51027;42.162;24.754;2023-06-22T07:19:39;100005.31;;;27.36;61.59
64616;BME280;51027;42.162;24.754;2023-06-22T07:22:05;100005.03;;;27.39;62.17
64616;BME280;51027;42.162;24.754;2023-06-22T07:24:31;99999.78;;;27.45;62.14
64616;BME280;51027;42.162;24.754;2023-06-22T07:26:57;100015.09;;;27.29;60.70
64616;BME280;51027;42.162;24.754;2023-06-22T07:29:24;100012.00;;;27.23;60.57
64616;BME280;51027;42.162;24.754;2023-06-22T07:31:50;100003.53;;;27.18;60.92
64616;BME280;51027;42.162;24.754;2023-06-22T07:34:19;100016.41;;;27.24;60.89
64616;BME280;51027;42.162;24.754;2023-06-22T07:36:45;100018.53;;;27.39;61.33
64616;BME280;51027;42.162;24.754;2023-06-22T07:39:11;100002.13;;;27.66;60.88
64616;BME280;51027;42.162;24.754;2023-06-22T07:41:39;100009.53;;;27.90;59.62
64616;BME280;51027;42.162;24.754;2023-06-22T07:44:07;100018.44;;;27.82;58.68
64616;BME280;51027;42.162;24.754;2023-06-22T07:46:34;100004.78;;;27.92;58.67
64616;BME280;51027;42.162;24.754;2023-06-22T07:49:02;100005.22;;;28.22;58.81
64616;BME280;51027;42.162;24.754;2023-06-22T07:51:30;100012.38;;;28.47;57.41
64616;BME280;51027;42.162;24.754;2023-06-22T07:53:56;100001.56;;;28.55;54.66
64616;BME280;51027;42.162;24.754;2023-06-22T07:56:21;100001.72;;;28.86;56.69
64616;BME280;51027;42.162;24.754;2023-06-22T07:58:47;100007.50;;;29.16;55.76
64616;BME280;51027;42.162;24.754;2023-06-22T08:01:15;99997.50;;;29.08;55.90
64616;BME280;51027;42.162;24.754;2023-06-22T08:03:42;99994.22;;;29.37;55.25
64616;BME280;51027;42.162;24.754;2023-06-22T08:06:08;99999.31;;;29.32;54.63
64616;BME280;51027;42.162;24.754;2023-06-22T08:08:35;99978.66;;;29.23;54.75
64616;BME280;51027;42.162;24.754;2023-06-22T08:11:00;99988.13;;;29.27;54.27
64616;BME280;51027;42.162;24.754;2023-06-22T08:13:26;99989.63;;;29.54;54.53
64616;BME280;51027;42.162;24.754;2023-06-22T08:15:51;99983.03;;;29.48;53.53
64616;BME280;51027;42.162;24.754;2023-06-22T08:18:17;99976.84;;;29.63;53.87
64616;BME280;51027;42.162;24.754;2023-06-22T08:20:42;99969.03;;;29.68;53.95
64616;BME280;51027;42.162;24.754;2023-06-22T08:23:08;99978.19;;;29.67;52.94
64616;BME280;51027;42.162;24.754;2023-06-22T08:25:34;99982.19;;;29.87;51.91
64616;BME280;51027;42.162;24.754;2023-06-22T08:28:01;99971.63;;;29.92;51.73
64616;BME280;51027;42.162;24.754;2023-06-22T08:30:26;99968.16;;;30.15;50.40
64616;BME280;51027;42.162;24.754;2023-06-22T08:32:52;99967.72;;;30.26;49.82
64616;BME280;51027;42.162;24.754;2023-06-22T08:35:19;99957.88;;;30.48;48.90
64616;BME280;51027;42.162;24.754;2023-06-22T08:37:44;99959.16;;;30.06;48.96
64616;BME280;51027;42.162;24.754;2023-06-22T08:40:18;99964.63;;;30.29;47.90
64616;BME280;51027;42.162;24.754;2023-06-22T08:42:45;99919.16;;;30.23;47.61
64616;BME280;51027;42.162;24.754;2023-06-22T08:45:11;99952.53;;;30.54;47.75
64616;BME280;51027;42.162;24.754;2023-06-22T08:47:37;99960.41;;;30.72;47.29
64616;BME280;51027;42.162;24.754;2023-06-22T08:50:03;99960.19;;;30.96;46.56
64616;BME280;51027;42.162;24.754;2023-06-22T08:52:29;99955.69;;;30.89;44.10
64616;BME280;51027;42.162;24.754;2023-06-22T08:54:54;99957.94;;;31.00;44.85
64616;BME280;51027;42.162;24.754;2023-06-22T08:57:21;99964.22;;;31.15;45.56
64616;BME280;51027;42.162;24.754;2023-06-22T08:59:46;99958.91;;;31.37;45.17
64616;BME280;51027;42.162;24.754;2023-06-22T09:02:12;99960.72;;;31.30;44.17
64616;BME280;51027;42.162;24.754;2023-06-22T09:04:37;99951.50;;;31.45;45.17
64616;BME280;51027;42.162;24.754;2023-06-22T09:07:03;99954.88;;;31.62;45.50
64616;BME280;51027;42.162;24.754;2023-06-22T09:09:33;99950.72;;;31.66;43.72
64616;BME280;51027;42.162;24.754;2023-06-22T09:11:58;99949.44;;;31.62;42.20
64616;BME280;51027;42.162;24.754;2023-06-22T09:14:24;99957.13;;;31.73;42.18
64616;BME280;51027;42.162;24.754;2023-06-22T09:16:49;99943.69;;;31.87;41.02
64616;BME280;51027;42.162;24.754;2023-06-22T09:19:15;99944.91;;;31.84;41.74
64616;BME280;51027;42.162;24.754;2023-06-22T09:21:40;99953.22;;;31.97;40.33
64616;BME280;51027;42.162;24.754;2023-06-22T09:24:06;99953.38;;;31.89;41.13
64616;BME280;51027;42.162;24.754;2023-06-22T09:26:31;99947.34;;;32.15;41.10
64616;BME280;51027;42.162;24.754;2023-06-22T09:28:57;99936.72;;;32.20;41.63
64616;BME280;51027;42.162;24.754;2023-06-22T09:31:23;99943.50;;;31.88;40.58
64616;BME280;51027;42.162;24.754;2023-06-22T09:33:53;99941.25;;;31.77;41.41
64616;BME280;51027;42.162;24.754;2023-06-22T09:36:19;99922.16;;;31.92;40.74
64616;BME280;51027;42.162;24.754;2023-06-22T09:38:45;99926.69;;;31.85;40.61
64616;BME280;51027;42.162;24.754;2023-06-22T09:41:10;99939.97;;;31.43;41.87
64616;BME280;51027;42.162;24.754;2023-06-22T09:43:36;99936.97;;;31.38;41.21
64616;BME280;51027;42.162;24.754;2023-06-22T09:46:02;99935.28;;;32.03;40.45
64616;BME280;51027;42.162;24.754;2023-06-22T09:48:28;99927.22;;;32.16;39.63
64616;BME280;51027;42.162;24.754;2023-06-22T09:50:55;99933.19;;;32.41;38.71
64616;BME280;51027;42.162;24.754;2023-06-22T09:53:21;99917.28;;;32.45;39.42
64616;BME280;51027;42.162;24.754;2023-06-22T09:55:47;99930.97;;;31.94;39.81
64616;BME280;51027;42.162;24.754;2023-06-22T09:58:12;99937.63;;;32.27;39.30
64616;BME280;51027;42.162;24.754;2023-06-22T10:00:37;99919.59;;;32.48;38.59
64616;BME280;51027;42.162;24.754;2023-06-22T10:03:03;99933.72;;;32.15;40.08
64616;BME280;51027;42.162;24.754;2023-06-22T10:05:28;99925.94;;;31.91;40.17
64616;BME280;51027;42.162;24.754;2023-06-22T10:07:54;99916.34;;;32.16;38.66
64616;BME280;51027;42.162;24.754;2023-06-22T10:10:19;99923.38;;;32.47;39.32
64616;BME280;51027;42.162;24.754;2023-06-22T10:12:55;99921.84;;;32.65;38.50
64616;BME280;51027;42.162;24.754;2023-06-22T10:15:21;99922.50;;;32.67;36.84
64616;BME280;51027;42.162;24.754;2023-06-22T10:17:47;99921.44;;;32.68;37.71
64616;BME280;51027;42.162;24.754;2023-06-22T10:20:15;99923.13;;;32.91;38.55
64616;BME280;51027;42.162;24.754;2023-06-22T10:22:44;99919.56;;;32.26;38.48
64616;BME280;51027;42.162;24.754;2023-06-22T10:25:12;99904.38;;;31.96;37.68
64616;BME280;51027;42.162;24.754;2023-06-22T10:27:38;99916.13;;;32.32;38.82
64616;BME280;51027;42.162;24.754;2023-06-22T10:30:07;99911.47;;;32.12;38.11
64616;BME280;51027;42.162;24.754;2023-06-22T10:32:33;99906.13;;;32.67;37.98
64616;BME280;51027;42.162;24.754;2023-06-22T10:34:58;99900.22;;;32.64;37.49
64616;BME280;51027;42.162;24.754;2023-06-22T10:37:24;99895.72;;;32.78;37.27
64616;BME280;51027;42.162;24.754;2023-06-22T10:39:49;99899.22;;;32.93;37.52
64616;BME280;51027;42.162;24.754;2023-06-22T10:42:14;99903.47;;;33.02;37.01
64616;BME280;51027;42.162;24.754;2023-06-22T10:44:40;99888.91;;;33.23;36.89
64616;BME280;51027;42.162;24.754;2023-06-22T10:47:06;99889.31;;;33.27;36.57
64616;BME280;51027;42.162;24.754;2023-06-22T10:49:32;99869.69;;;33.10;36.19
64616;BME280;51027;42.162;24.754;2023-06-22T10:51:57;99880.47;;;33.18;36.21
64616;BME280;51027;42.162;24.754;2023-06-22T10:54:23;99856.81;;;32.97;36.43
64616;BME280;51027;42.162;24.754;2023-06-22T10:56:48;99878.56;;;33.18;36.55
64616;BME280;51027;42.162;24.754;2023-06-22T10:59:14;99870.94;;;33.07;36.31
64616;BME280;51027;42.162;24.754;2023-06-22T11:01:39;99874.78;;;33.13;35.37
64616;BME280;51027;42.162;24.754;2023-06-22T11:04:05;99852.94;;;33.13;35.88
64616;BME280;51027;42.162;24.754;2023-06-22T11:06:30;99841.41;;;33.17;36.25
64616;BME280;51027;42.162;24.754;2023-06-22T11:08:56;99861.72;;;33.49;36.27
64616;BME280;51027;42.162;24.754;2023-06-22T11:11:21;99866.16;;;33.57;34.20
64616;BME280;51027;42.162;24.754;2023-06-22T11:13:46;99865.31;;;33.57;34.66
64616;BME280;51027;42.162;24.754;2023-06-22T11:16:12;99874.41;;;33.64;34.75
64616;BME280;51027;42.162;24.754;2023-06-22T11:18:37;99860.84;;;33.36;35.99
64616;BME280;51027;42.162;24.754;2023-06-22T11:21:03;99853.53;;;33.49;35.77
64616;BME280;51027;42.162;24.754;2023-06-22T11:23:28;99862.13;;;33.46;35.41
64616;BME280;51027;42.162;24.754;2023-06-22T11:25:54;99870.22;;;33.74;36.45
64616;BME280;51027;42.162;24.754;2023-06-22T11:28:20;99851.69;;;33.63;35.40
64616;BME280;51027;42.162;24.754;2023-06-22T11:30:45;99860.09;;;33.62;35.86
64616;BME280;51027;42.162;24.754;2023-06-22T11:33:11;99862.50;;;33.91;37.42
64616;BME280;51027;42.162;24.754;2023-06-22T11:35:37;99862.31;;;34.06;36.03
64616;BME280;51027;42.162;24.754;2023-06-22T11:38:03;99864.81;;;33.88;35.60
64616;BME280;51027;42.162;24.754;2023-06-22T11:40:30;99865.53;;;33.55;35.17
64616;BME280;51027;42.162;24.754;2023-06-22T11:42:55;99865.13;;;33.51;36.16
64616;BME280;51027;42.162;24.754;2023-06-22T11:45:21;99851.91;;;33.68;36.11
64616;BME280;51027;42.162;24.754;2023-06-22T11:47:46;99859.69;;;33.71;35.15
64616;BME280;51027;42.162;24.754;2023-06-22T11:50:12;99856.78;;;33.79;35.69
64616;BME280;51027;42.162;24.754;2023-06-22T11:52:37;99854.31;;;33.91;34.88
64616;BME280;51027;42.162;24.754;2023-06-22T11:55:03;99824.16;;;33.65;35.13
64616;BME280;51027;42.162;24.754;2023-06-22T11:57:33;99853.88;;;33.88;35.92
64616;BME280;51027;42.162;24.754;2023-06-22T11:59:59;99855.56;;;34.02;35.11
64616;BME280;51027;42.162;24.754;2023-06-22T12:02:31;99858.53;;;33.94;35.47
64616;BME280;51027;42.162;24.754;2023-06-22T12:04:57;99854.13;;;34.13;34.59
64616;BME280;51027;42.162;24.754;2023-06-22T12:07:23;99835.22;;;34.04;35.88
64616;BME280;51027;42.162;24.754;2023-06-22T12:09:49;99846.34;;;34.03;35.77
64616;BME280;51027;42.162;24.754;2023-06-22T12:12:15;99837.78;;;33.45;36.70
64616;BME280;51027;42.162;24.754;2023-06-22T12:14:40;99838.25;;;33.14;36.86
64616;BME280;51027;42.162;24.754;2023-06-22T12:17:05;99846.38;;;33.07;36.75
64616;BME280;51027;42.162;24.754;2023-06-22T12:19:31;99811.91;;;32.37;37.87
64616;BME280;51027;42.162;24.754;2023-06-22T12:21:57;99838.47;;;33.19;36.76
64616;BME280;51027;42.162;24.754;2023-06-22T12:24:22;99828.97;;;33.56;36.46
64616;BME280;51027;42.162;24.754;2023-06-22T12:26:49;99819.53;;;33.65;37.32
64616;BME280;51027;42.162;24.754;2023-06-22T12:29:15;99825.50;;;33.89;37.52
64616;BME280;51027;42.162;24.754;2023-06-22T12:31:40;99829.75;;;34.04;37.28
64616;BME280;51027;42.162;24.754;2023-06-22T12:34:07;99825.09;;;34.18;37.50
64616;BME280;51027;42.162;24.754;2023-06-22T12:36:32;99823.09;;;33.59;36.80
64616;BME280;51027;42.162;24.754;2023-06-22T12:38:58;99818.50;;;33.12;37.05
64616;BME280;51027;42.162;24.754;2023-06-22T12:41:23;99800.69;;;33.29;36.48
64616;BME280;51027;42.162;24.754;2023-06-22T12:43:48;99814.53;;;33.75;36.81
64616;BME280;51027;42.162;24.754;2023-06-22T12:46:14;99810.06;;;33.07;36.97
64616;BME280;51027;42.162;24.754;2023-06-22T12:48:39;99808.16;;;33.48;36.98
64616;BME280;51027;42.162;24.754;2023-06-22T12:51:08;99805.31;;;33.29;37.33
64616;BME280;51027;42.162;24.754;2023-06-22T12:53:34;99816.19;;;33.15;37.29
64616;BME280;51027;42.162;24.754;2023-06-22T12:55:59;99820.91;;;32.65;36.54
64616;BME280;51027;42.162;24.754;2023-06-22T12:58:25;99811.41;;;32.55;36.81
64616;BME280;51027;42.162;24.754;2023-06-22T13:00:50;99813.28;;;32.54;37.34
64616;BME280;51027;42.162;24.754;2023-06-22T13:03:16;99795.88;;;32.83;37.29
64616;BME280;51027;42.162;24.754;2023-06-22T13:05:41;99795.00;;;33.17;36.43
64616;BME280;51027;42.162;24.754;2023-06-22T13:08:07;99803.16;;;32.76;38.39
64616;BME280;51027;42.162;24.754;2023-06-22T13:10:36;99814.69;;;32.44;38.18
64616;BME280;51027;42.162;24.754;2023-06-22T13:13:01;99814.19;;;32.33;39.06
64616;BME280;51027;42.162;24.754;2023-06-22T13:15:28;99797.25;;;32.17;39.19
64616;BME280;51027;42.162;24.754;2023-06-22T13:17:56;99801.53;;;32.04;39.51
64616;BME280;51027;42.162;24.754;2023-06-22T13:20:25;99805.97;;;31.84;40.41
64616;BME280;51027;42.162;24.754;2023-06-22T13:22:51;99799.06;;;31.67;40.96
64616;BME280;51027;42.162;24.754;2023-06-22T13:25:16;99800.88;;;31.60;41.28
64616;BME280;51027;42.162;24.754;2023-06-22T13:27:44;99804.69;;;31.44;41.58
64616;BME280;51027;42.162;24.754;2023-06-22T13:30:10;99808.25;;;31.44;42.12
64616;BME280;51027;42.162;24.754;2023-06-22T13:32:36;99809.59;;;31.34;42.38
64616;BME280;51027;42.162;24.754;2023-06-22T13:35:01;99797.69;;;31.20;42.31
64616;BME280;51027;42.162;24.754;2023-06-22T13:37:27;99798.72;;;31.19;42.39
64616;BME280;51027;42.162;24.754;2023-06-22T13:39:52;99800.50;;;31.12;42.67
64616;BME280;51027;42.162;24.754;2023-06-22T13:42:18;99813.91;;;31.13;42.94
64616;BME280;51027;42.162;24.754;2023-06-22T13:44:43;99813.53;;;31.16;43.48
64616;BME280;51027;42.162;24.754;2023-06-22T13:47:09;99817.47;;;31.14;43.87
64616;BME280;51027;42.162;24.754;2023-06-22T13:49:34;99805.69;;;30.92;43.65
64616;BME280;51027;42.162;24.754;2023-06-22T13:52:00;99803.34;;;30.89;44.61
64616;BME280;51027;42.162;24.754;2023-06-22T13:54:25;99797.31;;;30.93;44.68
64616;BME280;51027;42.162;24.754;2023-06-22T13:56:51;99820.28;;;31.06;44.50
64616;BME280;51027;42.162;24.754;2023-06-22T13:59:16;99803.00;;;31.43;44.36
64616;BME280;51027;42.162;24.754;2023-06-22T14:01:42;99810.44;;;31.34;45.29
64616;BME280;51027;42.162;24.754;2023-06-22T14:04:08;99797.13;;;31.24;45.23
64616;BME280;51027;42.162;24.754;2023-06-22T14:06:34;99803.69;;;31.30;45.10
64616;BME280;51027;42.162;24.754;2023-06-22T14:08:59;99800.53;;;31.27;46.22
64616;BME280;51027;42.162;24.754;2023-06-22T14:11:25;99812.94;;;31.36;45.17
64616;BME280;51027;42.162;24.754;2023-06-22T14:13:50;99806.22;;;31.32;45.38
64616;BME280;51027;42.162;24.754;2023-06-22T14:16:16;99803.59;;;31.38;46.02
64616;BME280;51027;42.162;24.754;2023-06-22T14:18:42;99788.75;;;31.26;46.21
64616;BME280;51027;42.162;24.754;2023-06-22T14:21:07;99801.28;;;31.20;45.15
64616;BME280;51027;42.162;24.754;2023-06-22T14:23:33;99800.94;;;31.15;46.71
64616;BME280;51027;42.162;24.754;2023-06-22T14:25:58;99795.25;;;31.10;46.67
64616;BME280;51027;42.162;24.754;2023-06-22T14:28:24;99799.50;;;30.98;47.12
64616;BME280;51027;42.162;24.754;2023-06-22T14:30:49;99799.97;;;30.87;46.54
64616;BME280;51027;42.162;24.754;2023-06-22T14:33:14;99785.97;;;30.75;46.64
64616;BME280;51027;42.162;24.754;2023-06-22T14:35:40;99798.56;;;30.76;46.62
64616;BME280;51027;42.162;24.754;2023-06-22T14:38:06;99811.59;;;30.81;46.05
64616;BME280;51027;42.162;24.754;2023-06-22T14:40:31;99796.00;;;30.75;46.97
64616;BME280;51027;42.162;24.754;2023-06-22T14:42:56;99807.78;;;30.52;48.48
64616;BME280;51027;42.162;24.754;2023-06-22T14:45:23;99804.88;;;30.39;48.70
64616;BME280;51027;42.162;24.754;2023-06-22T14:47:48;99810.84;;;30.20;49.22
64616;BME280;51027;42.162;24.754;2023-06-22T14:50:14;99812.97;;;30.09;49.61
64616;BME280;51027;42.162;24.754;2023-06-22T14:52:39;99816.66;;;30.17;49.51
64616;BME280;51027;42.162;24.754;2023-06-22T14:55:06;99805.28;;;30.13;50.78
64616;BME280;51027;42.162;24.754;2023-06-22T14:57:31;99816.91;;;30.07;50.38
64616;BME280;51027;42.162;24.754;2023-06-22T14:59:57;99818.25;;;30.03;50.89
64616;BME280;51027;42.162;24.754;2023-06-22T15:02:25;99822.66;;;29.81;52.30
64616;BME280;51027;42.162;24.754;2023-06-22T15:04:51;99806.56;;;29.79;54.79
64616;BME280;51027;42.162;24.754;2023-06-22T15:07:18;99827.63;;;29.77;55.36
64616;BME280;51027;42.162;24.754;2023-06-22T15:09:43;99819.34;;;29.94;55.75
64616;BME280;51027;42.162;24.754;2023-06-22T15:12:10;99816.44;;;29.72;57.08
64616;BME280;51027;42.162;24.754;2023-06-22T15:14:40;99828.59;;;29.22;58.75
64616;BME280;51027;42.162;24.754;2023-06-22T15:17:09;99839.88;;;28.95;60.20
64616;BME280;51027;42.162;24.754;2023-06-22T15:19:35;99842.25;;;28.90;60.20
64616;BME280;51027;42.162;24.754;2023-06-22T15:22:01;99824.00;;;28.67;59.88
64616;BME280;51027;42.162;24.754;2023-06-22T15:24:27;99835.13;;;28.81;60.32
64616;BME280;51027;42.162;24.754;2023-06-22T15:26:52;99837.44;;;28.45;62.64
64616;BME280;51027;42.162;24.754;2023-06-22T15:29:18;99839.97;;;28.22;64.30
64616;BME280;51027;42.162;24.754;2023-06-22T15:31:43;99836.09;;;28.00;64.79
64616;BME280;51027;42.162;24.754;2023-06-22T15:34:08;99849.78;;;28.06;65.61
64616;BME280;51027;42.162;24.754;2023-06-22T15:36:34;99828.13;;;27.90;66.06
64616;BME280;51027;42.162;24.754;2023-06-22T15:39:02;99844.19;;;27.92;67.73
64616;BME280;51027;42.162;24.754;2023-06-22T15:41:27;99847.38;;;27.79;68.72
64616;BME280;51027;42.162;24.754;2023-06-22T15:43:53;99821.25;;;27.53;69.40
64616;BME280;51027;42.162;24.754;2023-06-22T15:46:19;99835.81;;;27.61;69.64
64616;BME280;51027;42.162;24.754;2023-06-22T15:48:44;99833.31;;;27.75;69.01
64616;BME280;51027;42.162;24.754;2023-06-22T15:51:10;99842.13;;;27.77;69.75
64616;BME280;51027;42.162;24.754;2023-06-22T15:53:35;99838.94;;;27.82;69.96
64616;BME280;51027;42.162;24.754;2023-06-22T15:56:01;99834.38;;;27.82;69.61
64616;BME280;51027;42.162;24.754;2023-06-22T15:58:26;99826.84;;;27.60;69.86
64616;BME280;51027;42.162;24.754;2023-06-22T16:00:52;99820.81;;;27.82;69.51
64616;BME280;51027;42.162;24.754;2023-06-22T16:03:17;99824.88;;;27.87;70.68
64616;BME280;51027;42.162;24.754;2023-06-22T16:05:43;99825.56;;;27.97;70.55
64616;BME280;51027;42.162;24.754;2023-06-22T16:08:11;99824.88;;;27.87;70.56
64616;BME280;51027;42.162;24.754;2023-06-22T16:10:39;99809.00;;;27.92;71.72
64616;BME280;51027;42.162;24.754;2023-06-22T16:13:04;99817.09;;;27.75;73.12